sensor_id;sensor_type;location;lat;lon;timestamp;pressure;altitude;pressure_sealevel;temperature;humidity
75298;BME280;63896;45.990;18.688;2024-02-23T00:01:44;99673.09;;;10.66;61.01
75298;BME280;63896;45.990;18.688;2024-02-23T00:04:47;99682.16;;;10.58;61.61
75298;BME280;63896;45.990;18.688;2024-02-23T00:07:50;99684.13;;;10.51;62.91
75298;BME280;63896;45.990;18.688;2024-02-23T00:10:52;99691.75;;;10.47;62.81
75298;BME280;63896;45.990;18.688;2024-02-23T00:13:56;99697.06;;;10.47;62.78
75298;BME280;63896;45.990;18.688;2024-02-23T00:16:58;99712.28;;;10.40;63.75
75298;BME280;63896;45.990;18.688;2024-02-23T00:20:04;99708.72;;;10.35;64.76
75298;BME280;63896;45.990;18.688;2024-02-23T00:23:07;99707.78;;;10.41;64.67
75298;BME280;63896;45.990;18.688;2024-02-23T00:26:09;99702.47;;;10.41;64.31
75298;BME280;63896;45.990;18.688;2024-02-23T00:29:12;99701.66;;;10.29;65.64
75298;BME280;63896;45.990;18.688;2024-02-23T00:32:15;99699.94;;;10.34;64.49
75298;BME280;63896;45.990;18.688;2024-02-23T00:35:18;99695.69;;;10.45;63.47
75298;BME280;63896;45.990;18.688;2024-02-23T00:38:21;99691.88;;;10.41;64.53
75298;BME280;63896;45.990;18.688;2024-02-23T00:41:24;99689.09;;;10.47;64.13
75298;BME280;63896;45.990;18.688;2024-02-23T00:44:27;99697.16;;;10.41;64.79
75298;BME280;63896;45.990;18.688;2024-02-23T00:47:30;99698.19;;;10.40;64.81
75298;BME280;63896;45.990;18.688;2024-02-23T00:50:33;99686.34;;;10.42;65.44
75298;BME280;63896;45.990;18.688;2024-02-23T00:53:36;99682.63;;;10.20;67.49
75298;BME280;63896;45.990;18.688;2024-02-23T00:56:38;99683.22;;;10.22;67.89
75298;BME280;63896;45.990;18.688;2024-02-23T00:59:52;99690.00;;;10.18;68.81
75298;BME280;63896;45.990;18.688;2024-02-23T01:02:55;99688.78;;;10.02;70.68
75298;BME280;63896;45.990;18.688;2024-02-23T01:05:58;99679.34;;;10.07;70.37
75298;BME280;63896;45.990;18.688;2024-02-23T01:09:00;99682.81;;;10.07;70.27
75298;BME280;63896;45.990;18.688;2024-02-23T01:12:03;99695.59;;;10.10;70.69
75298;BME280;63896;45.990;18.688;2024-02-23T01:15:06;99689.34;;;10.04;71.77
75298;BME280;63896;45.990;18.688;2024-02-23T01:18:09;99685.78;;;9.99;74.63
75298;BME280;63896;45.990;18.688;2024-02-23T01:21:12;99697.28;;;9.93;77.48
75298;BME280;63896;45.990;18.688;2024-02-23T01:24:16;99698.41;;;9.85;79.84
75298;BME280;63896;45.990;18.688;2024-02-23T01:27:19;99698.06;;;9.82;82.56
75298;BME280;63896;45.990;18.688;2024-02-23T01:30:21;99686.78;;;9.86;82.42
75298;BME280;63896;45.990;18.688;2024-02-23T01:33:24;99683.78;;;9.83;82.42
75298;BME280;63896;45.990;18.688;2024-02-23T01:36:27;99681.09;;;9.71;83.99
75298;BME280;63896;45.990;18.688;2024-02-23T01:39:30;99669.69;;;9.71;83.68
75298;BME280;63896;45.990;18.688;2024-02-23T01:42:33;99668.06;;;9.70;85.27
75298;BME280;63896;45.990;18.688;2024-02-23T01:45:35;99670.66;;;9.76;87.33
75298;BME280;63896;45.990;18.688;2024-02-23T01:48:38;99660.72;;;9.72;88.71
75298;BME280;63896;45.990;18.688;2024-02-23T01:51:41;99653.66;;;9.66;92.00
75298;BME280;63896;45.990;18.688;2024-02-23T01:54:44;99652.59;;;9.55;96.21
75298;BME280;63896;45.990;18.688;2024-02-23T01:57:47;99655.34;;;9.48;99.10
75298;BME280;63896;45.990;18.688;2024-02-23T02:00:52;99649.47;;;9.46;98.99
75298;BME280;63896;45.990;18.688;2024-02-23T02:03:54;99647.41;;;9.48;100.00
75298;BME280;63896;45.990;18.688;2024-02-23T02:06:59;99640.81;;;9.39;100.00
75298;BME280;63896;45.990;18.688;2024-02-23T02:10:05;99651.03;;;9.36;100.00
75298;BME280;63896;45.990;18.688;2024-02-23T02:13:09;99653.78;;;9.29;100.00
75298;BME280;63896;45.990;18.688;2024-02-23T02:16:12;99652.81;;;9.24;100.00
75298;BME280;63896;45.990;18.688;2024-02-23T02:19:15;99649.00;;;9.20;100.00
75298;BME280;63896;45.990;18.688;2024-02-23T02:22:18;99661.94;;;9.28;100.00
75298;BME280;63896;45.990;18.688;2024-02-23T02:25:21;99660.09;;;9.28;100.00
75298;BME280;63896;45.990;18.688;2024-02-23T02:28:25;99665.84;;;9.25;100.00
75298;BME280;63896;45.990;18.688;2024-02-23T02:31:28;99663.59;;;9.11;100.00
75298;BME280;63896;45.990;18.688;2024-02-23T02:34:31;99677.16;;;8.96;100.00
75298;BME280;63896;45.990;18.688;2024-02-23T02:37:34;99682.34;;;8.91;100.00
75298;BME280;63896;45.990;18.688;2024-02-23T02:40:37;99685.63;;;8.86;100.00
75298;BME280;63896;45.990;18.688;2024-02-23T02:43:40;99688.41;;;8.73;100.00
75298;BME280;63896;45.990;18.688;2024-02-23T02:46:43;99679.75;;;8.66;100.00
75298;BME280;63896;45.990;18.688;2024-02-23T02:49:46;99686.13;;;8.58;100.00
75298;BME280;63896;45.990;18.688;2024-02-23T02:52:48;99690.94;;;8.43;100.00
75298;BME280;63896;45.990;18.688;2024-02-23T02:55:51;99688.81;;;8.34;100.00
75298;BME280;63896;45.990;18.688;2024-02-23T02:58:54;99675.59;;;8.27;100.00
75298;BME280;63896;45.990;18.688;2024-02-23T03:01:57;99671.38;;;8.20;100.00
75298;BME280;63896;45.990;18.688;2024-02-23T03:05:00;99684.03;;;8.18;100.00
75298;BME280;63896;45.990;18.688;2024-02-23T03:08:02;99689.75;;;8.14;100.00
75298;BME280;63896;45.990;18.688;2024-02-23T03:11:05;99690.38;;;8.10;100.00
75298;BME280;63896;45.990;18.688;2024-02-23T03:14:08;99695.28;;;8.06;100.00
75298;BME280;63896;45.990;18.688;2024-02-23T03:17:13;99691.19;;;8.10;100.00
75298;BME280;63896;45.990;18.688;2024-02-23T03:20:16;99681.03;;;8.07;100.00
75298;BME280;63896;45.990;18.688;2024-02-23T03:23:19;99683.31;;;8.04;100.00
75298;BME280;63896;45.990;18.688;2024-02-23T03:26:22;99689.66;;;7.96;100.00
75298;BME280;63896;45.990;18.688;2024-02-23T03:29:25;99688.31;;;7.87;100.00
75298;BME280;63896;45.990;18.688;2024-02-23T03:32:32;99685.50;;;7.82;100.00
75298;BME280;63896;45.990;18.688;2024-02-23T03:35:39;99692.41;;;7.83;100.00
75298;BME280;63896;45.990;18.688;2024-02-23T03:38:42;99694.22;;;7.83;100.00
75298;BME280;63896;45.990;18.688;2024-02-23T03:41:45;99693.63;;;7.81;100.00
75298;BME280;63896;45.990;18.688;2024-02-23T03:44:47;99684.25;;;7.85;100.00
75298;BME280;63896;45.990;18.688;2024-02-23T03:47:51;99678.38;;;7.83;100.00
75298;BME280;63896;45.990;18.688;2024-02-23T03:50:54;99673.69;;;7.85;100.00
75298;BME280;63896;45.990;18.688;2024-02-23T03:53:56;99677.31;;;7.90;100.00
75298;BME280;63896;45.990;18.688;2024-02-23T03:56:59;99669.84;;;7.87;100.00
75298;BME280;63896;45.990;18.688;2024-02-23T04:00:02;99660.84;;;7.88;100.00
75298;BME280;63896;45.990;18.688;2024-02-23T04:03:12;99654.75;;;7.88;100.00
75298;BME280;63896;45.990;18.688;2024-02-23T04:06:18;99654.44;;;7.78;100.00
75298;BME280;63896;45.990;18.688;2024-02-23T04:09:21;99658.28;;;7.82;100.00
75298;BME280;63896;45.990;18.688;2024-02-23T04:12:24;99663.75;;;7.80;100.00
75298;BME280;63896;45.990;18.688;2024-02-23T04:15:27;99670.91;;;7.80;100.00
75298;BME280;63896;45.990;18.688;2024-02-23T04:18:29;99662.59;;;7.76;100.00
75298;BME280;63896;45.990;18.688;2024-02-23T04:21:33;99663.06;;;7.66;100.00
75298;BME280;63896;45.990;18.688;2024-02-23T04:24:39;99656.53;;;7.69;100.00
75298;BME280;63896;45.990;18.688;2024-02-23T04:27:42;99652.66;;;7.72;100.00
75298;BME280;63896;45.990;18.688;2024-02-23T04:30:46;99651.47;;;7.68;100.00
75298;BME280;63896;45.990;18.688;2024-02-23T04:33:48;99648.22;;;7.65;100.00
75298;BME280;63896;45.990;18.688;2024-02-23T04:36:52;99645.59;;;7.65;100.00
75298;BME280;63896;45.990;18.688;2024-02-23T04:39:55;99644.38;;;7.68;100.00
75298;BME280;63896;45.990;18.688;2024-02-23T04:42:58;99636.84;;;7.72;100.00
75298;BME280;63896;45.990;18.688;2024-02-23T04:46:01;99621.56;;;7.74;100.00
75298;BME280;63896;45.990;18.688;2024-02-23T04:49:03;99624.38;;;7.79;100.00
75298;BME280;63896;45.990;18.688;2024-02-23T04:52:07;99622.28;;;7.87;100.00
75298;BME280;63896;45.990;18.688;2024-02-23T04:55:11;99624.66;;;7.95;100.00
75298;BME280;63896;45.990;18.688;2024-02-23T04:58:14;99617.75;;;7.94;100.00
75298;BME280;63896;45.990;18.688;2024-02-23T05:01:16;99617.31;;;7.97;100.00
75298;BME280;63896;45.990;18.688;2024-02-23T05:04:19;99617.50;;;8.02;100.00
75298;BME280;63896;45.990;18.688;2024-02-23T05:07:22;99613.97;;;8.08;100.00
75298;BME280;63896;45.990;18.688;2024-02-23T05:10:25;99605.59;;;8.11;100.00
75298;BME280;63896;45.990;18.688;2024-02-23T05:13:28;99612.88;;;8.16;100.00
75298;BME280;63896;45.990;18.688;2024-02-23T05:16:31;99602.47;;;8.21;100.00
75298;BME280;63896;45.990;18.688;2024-02-23T05:19:34;99619.28;;;8.27;100.00
75298;BME280;63896;45.990;18.688;2024-02-23T05:22:41;99615.44;;;8.29;100.00
75298;BME280;63896;45.990;18.688;2024-02-23T05:25:44;99623.75;;;8.33;100.00
75298;BME280;63896;45.990;18.688;2024-02-23T05:28:46;99633.31;;;8.34;100.00
75298;BME280;63896;45.990;18.688;2024-02-23T05:31:52;99636.81;;;8.46;100.00
75298;BME280;63896;45.990;18.688;2024-02-23T05:34:55;99635.44;;;8.43;100.00
75298;BME280;63896;45.990;18.688;2024-02-23T05:37:59;99636.88;;;8.39;100.00
75298;BME280;63896;45.990;18.688;2024-02-23T05:41:03;99641.16;;;8.40;100.00
75298;BME280;63896;45.990;18.688;2024-02-23T05:44:08;99641.53;;;8.44;100.00
75298;BME280;63896;45.990;18.688;2024-02-23T05:47:11;99641.00;;;8.53;100.00
75298;BME280;63896;45.990;18.688;2024-02-23T05:50:13;99643.44;;;8.55;100.00
75298;BME280;63896;45.990;18.688;2024-02-23T05:53:16;99644.91;;;8.51;100.00
75298;BME280;63896;45.990;18.688;2024-02-23T05:56:19;99649.53;;;8.37;100.00
75298;BME280;63896;45.990;18.688;2024-02-23T05:59:22;99661.31;;;8.35;100.00
75298;BME280;63896;45.990;18.688;2024-02-23T06:02:25;99666.25;;;8.31;100.00
75298;BME280;63896;45.990;18.688;2024-02-23T06:05:28;99668.06;;;8.31;100.00
75298;BME280;63896;45.990;18.688;2024-02-23T06:08:31;99667.25;;;8.30;100.00
75298;BME280;63896;45.990;18.688;2024-02-23T06:11:34;99676.81;;;8.31;100.00
75298;BME280;63896;45.990;18.688;2024-02-23T06:14:37;99677.19;;;8.35;100.00
75298;BME280;63896;45.990;18.688;2024-02-23T06:17:40;99683.06;;;8.37;100.00
75298;BME280;63896;45.990;18.688;2024-02-23T06:20:43;99686.53;;;8.37;100.00
75298;BME280;63896;45.990;18.688;2024-02-23T06:23:46;99687.75;;;8.35;100.00
75298;BME280;63896;45.990;18.688;2024-02-23T06:26:49;99693.84;;;8.35;100.00
75298;BME280;63896;45.990;18.688;2024-02-23T06:29:51;99692.22;;;8.34;100.00
75298;BME280;63896;45.990;18.688;2024-02-23T06:32:57;99702.44;;;8.31;100.00
75298;BME280;63896;45.990;18.688;2024-02-23T06:36:00;99709.72;;;8.35;100.00
75298;BME280;63896;45.990;18.688;2024-02-23T06:39:03;99700.97;;;8.35;100.00
75298;BME280;63896;45.990;18.688;2024-02-23T06:42:06;99708.50;;;8.38;100.00
75298;BME280;63896;45.990;18.688;2024-02-23T06:45:09;99713.72;;;8.44;100.00
75298;BME280;63896;45.990;18.688;2024-02-23T06:48:12;99718.38;;;8.42;100.00
75298;BME280;63896;45.990;18.688;2024-02-23T06:51:15;99724.72;;;8.41;100.00
75298;BME280;63896;45.990;18.688;2024-02-23T06:54:18;99725.31;;;8.43;100.00
75298;BME280;63896;45.990;18.688;2024-02-23T06:57:21;99727.50;;;8.46;100.00
75298;BME280;63896;45.990;18.688;2024-02-23T07:02:24;99725.47;;;8.48;100.00
75298;BME280;63896;45.990;18.688;2024-02-23T07:05:30;99729.03;;;8.60;100.00
75298;BME280;63896;45.990;18.688;2024-02-23T07:08:33;99743.00;;;8.68;100.00
75298;BME280;63896;45.990;18.688;2024-02-23T07:11:37;99736.44;;;8.70;100.00
75298;BME280;63896;45.990;18.688;2024-02-23T07:14:41;99743.94;;;8.73;100.00
75298;BME280;63896;45.990;18.688;2024-02-23T07:17:44;99750.00;;;8.80;100.00
75298;BME280;63896;45.990;18.688;2024-02-23T07:20:49;99761.75;;;8.84;100.00
75298;BME280;63896;45.990;18.688;2024-02-23T07:23:52;99754.63;;;8.85;100.00
75298;BME280;63896;45.990;18.688;2024-02-23T07:26:59;99758.81;;;8.92;100.00
75298;BME280;63896;45.990;18.688;2024-02-23T07:30:02;99760.44;;;8.93;100.00
75298;BME280;63896;45.990;18.688;2024-02-23T07:33:27;99767.53;;;8.99;100.00
75298;BME280;63896;45.990;18.688;2024-02-23T07:36:30;99769.44;;;9.11;100.00
75298;BME280;63896;45.990;18.688;2024-02-23T07:39:34;99756.00;;;9.30;100.00
75298;BME280;63896;45.990;18.688;2024-02-23T07:42:38;99767.00;;;9.45;100.00
75298;BME280;63896;45.990;18.688;2024-02-23T07:45:41;99761.03;;;9.50;100.00
75298;BME280;63896;45.990;18.688;2024-02-23T07:48:45;99759.78;;;9.52;100.00
75298;BME280;63896;45.990;18.688;2024-02-23T07:51:48;99747.94;;;9.55;100.00
75298;BME280;63896;45.990;18.688;2024-02-23T07:54:52;99731.59;;;9.58;100.00
75298;BME280;63896;45.990;18.688;2024-02-23T07:57:55;99715.44;;;9.48;100.00
75298;BME280;63896;45.990;18.688;2024-02-23T08:01:04;99708.00;;;9.38;100.00
75298;BME280;63896;45.990;18.688;2024-02-23T08:04:06;99697.31;;;9.33;100.00
75298;BME280;63896;45.990;18.688;2024-02-23T08:07:10;99704.69;;;9.61;100.00
75298;BME280;63896;45.990;18.688;2024-02-23T08:10:13;99700.78;;;9.64;100.00
75298;BME280;63896;45.990;18.688;2024-02-23T08:13:16;99697.63;;;9.96;100.00
75298;BME280;63896;45.990;18.688;2024-02-23T08:16:20;99702.28;;;10.13;100.00
75298;BME280;63896;45.990;18.688;2024-02-23T08:19:32;99701.31;;;10.37;100.00
75298;BME280;63896;45.990;18.688;2024-02-23T08:22:35;99701.09;;;10.50;100.00
75298;BME280;63896;45.990;18.688;2024-02-23T08:25:50;99690.94;;;10.70;100.00
75298;BME280;63896;45.990;18.688;2024-02-23T08:28:56;99696.16;;;10.42;100.00
75298;BME280;63896;45.990;18.688;2024-02-23T08:31:59;99698.19;;;10.40;100.00
75298;BME280;63896;45.990;18.688;2024-02-23T08:35:02;99704.53;;;10.50;100.00
75298;BME280;63896;45.990;18.688;2024-02-23T08:38:05;99696.16;;;10.65;100.00
75298;BME280;63896;45.990;18.688;2024-02-23T08:41:08;99700.50;;;10.83;100.00
75298;BME280;63896;45.990;18.688;2024-02-23T08:44:11;99696.19;;;11.05;100.00
75298;BME280;63896;45.990;18.688;2024-02-23T08:47:14;99703.00;;;11.13;100.00
75298;BME280;63896;45.990;18.688;2024-02-23T08:50:17;99691.16;;;11.32;100.00
75298;BME280;63896;45.990;18.688;2024-02-23T08:53:20;99697.34;;;11.49;100.00
75298;BME280;63896;45.990;18.688;2024-02-23T08:56:23;99700.81;;;11.78;100.00
75298;BME280;63896;45.990;18.688;2024-02-23T08:59:25;99699.25;;;11.93;100.00
75298;BME280;63896;45.990;18.688;2024-02-23T09:02:28;99692.25;;;11.87;100.00
75298;BME280;63896;45.990;18.688;2024-02-23T09:05:31;99691.06;;;12.12;100.00
75298;BME280;63896;45.990;18.688;2024-02-23T09:08:34;99691.47;;;12.37;100.00
75298;BME280;63896;45.990;18.688;2024-02-23T09:11:37;99684.59;;;12.58;100.00
75298;BME280;63896;45.990;18.688;2024-02-23T09:14:40;99683.53;;;12.97;100.00
75298;BME280;63896;45.990;18.688;2024-02-23T09:18:00;99689.25;;;13.49;100.00
75298;BME280;63896;45.990;18.688;2024-02-23T09:21:03;99681.94;;;14.20;100.00
75298;BME280;63896;45.990;18.688;2024-02-23T09:24:06;99690.25;;;15.07;100.00
75298;BME280;63896;45.990;18.688;2024-02-23T09:27:09;99678.84;;;15.27;89.95
75298;BME280;63896;45.990;18.688;2024-02-23T09:30:14;99688.34;;;14.98;95.89
75298;BME280;63896;45.990;18.688;2024-02-23T09:33:17;99691.00;;;15.03;91.14
75298;BME280;63896;45.990;18.688;2024-02-23T09:36:20;99685.38;;;14.52;96.21
75298;BME280;63896;45.990;18.688;2024-02-23T09:39:23;99682.44;;;14.17;94.11
75298;BME280;63896;45.990;18.688;2024-02-23T09:42:28;99690.16;;;13.87;100.00
75298;BME280;63896;45.990;18.688;2024-02-23T09:45:35;99691.69;;;13.51;100.00
75298;BME280;63896;45.990;18.688;2024-02-23T09:48:38;99688.47;;;13.27;100.00
75298;BME280;63896;45.990;18.688;2024-02-23T09:51:47;99688.09;;;13.02;100.00
75298;BME280;63896;45.990;18.688;2024-02-23T09:54:54;99688.50;;;12.88;100.00
75298;BME280;63896;45.990;18.688;2024-02-23T09:57:58;99700.47;;;12.69;100.00
75298;BME280;63896;45.990;18.688;2024-02-23T10:01:03;99702.91;;;12.54;100.00
75298;BME280;63896;45.990;18.688;2024-02-23T10:04:07;99699.16;;;12.55;100.00
75298;BME280;63896;45.990;18.688;2024-02-23T10:07:10;99695.50;;;12.39;100.00
75298;BME280;63896;45.990;18.688;2024-02-23T10:10:24;99695.38;;;12.51;100.00
75298;BME280;63896;45.990;18.688;2024-02-23T10:13:31;99692.19;;;12.49;100.00
75298;BME280;63896;45.990;18.688;2024-02-23T10:16:34;99693.72;;;12.62;100.00
75298;BME280;63896;45.990;18.688;2024-02-23T10:19:37;99684.00;;;12.72;100.00
75298;BME280;63896;45.990;18.688;2024-02-23T10:22:40;99682.16;;;12.95;100.00
75298;BME280;63896;45.990;18.688;2024-02-23T10:25:43;99677.06;;;13.10;100.00
75298;BME280;63896;45.990;18.688;2024-02-23T10:28:46;99673.34;;;13.32;100.00
75298;BME280;63896;45.990;18.688;2024-02-23T10:31:56;99682.81;;;13.45;100.00
75298;BME280;63896;45.990;18.688;2024-02-23T10:35:00;99675.69;;;13.51;100.00
75298;BME280;63896;45.990;18.688;2024-02-23T10:38:08;99683.53;;;13.62;100.00
75298;BME280;63896;45.990;18.688;2024-02-23T10:41:14;99686.22;;;13.67;100.00
75298;BME280;63896;45.990;18.688;2024-02-23T10:44:21;99672.81;;;13.84;100.00
75298;BME280;63896;45.990;18.688;2024-02-23T10:47:24;99684.50;;;13.78;100.00
75298;BME280;63896;45.990;18.688;2024-02-23T10:50:27;99660.13;;;13.96;96.51
75298;BME280;63896;45.990;18.688;2024-02-23T10:53:34;99652.34;;;14.26;91.82
75298;BME280;63896;45.990;18.688;2024-02-23T10:56:37;99652.41;;;14.31;89.94
75298;BME280;63896;45.990;18.688;2024-02-23T10:59:40;99651.69;;;14.41;86.43
75298;BME280;63896;45.990;18.688;2024-02-23T11:02:46;99641.44;;;14.33;90.14
75298;BME280;63896;45.990;18.688;2024-02-23T11:05:53;99657.66;;;14.21;90.27
75298;BME280;63896;45.990;18.688;2024-02-23T11:09:12;99656.41;;;14.34;91.36
75298;BME280;63896;45.990;18.688;2024-02-23T11:12:23;99652.09;;;14.28;85.56
75298;BME280;63896;45.990;18.688;2024-02-23T11:15:28;99645.41;;;14.25;87.00
75298;BME280;63896;45.990;18.688;2024-02-23T11:18:32;99653.53;;;14.36;88.36
75298;BME280;63896;45.990;18.688;2024-02-23T11:21:37;99657.47;;;14.33;87.48
75298;BME280;63896;45.990;18.688;2024-02-23T11:24:44;99655.13;;;14.37;87.23
75298;BME280;63896;45.990;18.688;2024-02-23T11:27:51;99659.44;;;14.11;90.85
75298;BME280;63896;45.990;18.688;2024-02-23T11:30:53;99659.72;;;14.14;92.68
75298;BME280;63896;45.990;18.688;2024-02-23T11:33:57;99646.47;;;14.24;92.73
75298;BME280;63896;45.990;18.688;2024-02-23T11:37:09;99645.09;;;14.17;91.46
75298;BME280;63896;45.990;18.688;2024-02-23T11:40:13;99644.63;;;14.30;90.59
75298;BME280;63896;45.990;18.688;2024-02-23T11:43:16;99639.31;;;14.30;88.26
75298;BME280;63896;45.990;18.688;2024-02-23T11:46:20;99643.19;;;14.17;91.19
75298;BME280;63896;45.990;18.688;2024-02-23T11:49:27;99648.19;;;14.04;89.67
75298;BME280;63896;45.990;18.688;2024-02-23T11:52:31;99657.16;;;13.93;90.26
75298;BME280;63896;45.990;18.688;2024-02-23T11:55:35;99651.69;;;13.77;95.24
75298;BME280;63896;45.990;18.688;2024-02-23T11:58:38;99655.19;;;13.83;93.85
75298;BME280;63896;45.990;18.688;2024-02-23T12:01:42;99657.22;;;13.71;96.17
75298;BME280;63896;45.990;18.688;2024-02-23T12:04:45;99652.81;;;13.87;97.71
75298;BME280;63896;45.990;18.688;2024-02-23T12:07:51;99654.16;;;13.84;99.04
75298;BME280;63896;45.990;18.688;2024-02-23T12:10:54;99652.88;;;13.92;100.00
75298;BME280;63896;45.990;18.688;2024-02-23T12:13:57;99645.59;;;14.14;100.00
75298;BME280;63896;45.990;18.688;2024-02-23T12:17:02;99647.97;;;14.10;100.00
75298;BME280;63896;45.990;18.688;2024-02-23T12:20:09;99645.41;;;14.25;100.00
75298;BME280;63896;45.990;18.688;2024-02-23T12:23:13;99650.38;;;14.44;100.00
75298;BME280;63896;45.990;18.688;2024-02-23T12:26:18;99652.53;;;14.47;100.00
75298;BME280;63896;45.990;18.688;2024-02-23T12:29:22;99640.72;;;14.38;100.00
75298;BME280;63896;45.990;18.688;2024-02-23T12:32:25;99648.19;;;14.41;99.84
75298;BME280;63896;45.990;18.688;2024-02-23T12:35:28;99643.44;;;14.43;100.00
75298;BME280;63896;45.990;18.688;2024-02-23T12:38:31;99645.00;;;14.39;100.00
75298;BME280;63896;45.990;18.688;2024-02-23T12:41:35;99635.91;;;14.35;100.00
75298;BME280;63896;45.990;18.688;2024-02-23T12:44:37;99636.22;;;14.43;100.00
75298;BME280;63896;45.990;18.688;2024-02-23T12:47:40;99637.03;;;14.49;100.00
75298;BME280;63896;45.990;18.688;2024-02-23T12:50:44;99629.13;;;14.59;86.00
75298;BME280;63896;45.990;18.688;2024-02-23T12:53:50;99635.47;;;14.48;86.04
75298;BME280;63896;45.990;18.688;2024-02-23T12:56:53;99624.47;;;14.39;87.49
75298;BME280;63896;45.990;18.688;2024-02-23T12:59:55;99611.56;;;14.31;89.70
75298;BME280;63896;45.990;18.688;2024-02-23T13:02:58;99626.75;;;14.30;92.16
75298;BME280;63896;45.990;18.688;2024-02-23T13:06:02;99628.47;;;14.42;91.18
75298;BME280;63896;45.990;18.688;2024-02-23T13:09:06;99627.34;;;14.32;94.58
75298;BME280;63896;45.990;18.688;2024-02-23T13:12:11;99628.63;;;14.30;94.56
75298;BME280;63896;45.990;18.688;2024-02-23T13:15:14;99623.22;;;14.20;96.97
75298;BME280;63896;45.990;18.688;2024-02-23T13:18:21;99624.41;;;14.02;96.25
75298;BME280;63896;45.990;18.688;2024-02-23T13:21:25;99624.63;;;13.96;99.77
75298;BME280;63896;45.990;18.688;2024-02-23T13:24:28;99609.22;;;13.71;100.00
75298;BME280;63896;45.990;18.688;2024-02-23T13:27:31;99607.13;;;13.73;100.00
75298;BME280;63896;45.990;18.688;2024-02-23T13:30:35;99607.53;;;13.60;100.00
75298;BME280;63896;45.990;18.688;2024-02-23T13:33:38;99603.63;;;13.41;100.00
75298;BME280;63896;45.990;18.688;2024-02-23T13:36:41;99588.94;;;13.38;100.00
75298;BME280;63896;45.990;18.688;2024-02-23T13:39:44;99579.53;;;13.57;100.00
75298;BME280;63896;45.990;18.688;2024-02-23T13:42:47;99565.41;;;13.57;100.00
75298;BME280;63896;45.990;18.688;2024-02-23T13:45:55;99567.53;;;13.55;100.00
75298;BME280;63896;45.990;18.688;2024-02-23T13:49:18;99560.75;;;13.74;100.00
75298;BME280;63896;45.990;18.688;2024-02-23T13:52:27;99563.25;;;13.86;100.00
75298;BME280;63896;45.990;18.688;2024-02-23T13:55:30;99553.66;;;13.90;100.00
75298;BME280;63896;45.990;18.688;2024-02-23T13:58:33;99555.69;;;14.14;100.00
75298;BME280;63896;45.990;18.688;2024-02-23T14:01:36;99549.38;;;14.30;100.00
75298;BME280;63896;45.990;18.688;2024-02-23T14:04:39;99556.34;;;13.95;100.00
75298;BME280;63896;45.990;18.688;2024-02-23T14:07:42;99554.78;;;13.99;100.00
75298;BME280;63896;45.990;18.688;2024-02-23T14:10:45;99548.25;;;13.79;100.00
75298;BME280;63896;45.990;18.688;2024-02-23T14:13:48;99535.19;;;13.83;100.00
75298;BME280;63896;45.990;18.688;2024-02-23T14:16:53;99525.88;;;13.80;100.00
75298;BME280;63896;45.990;18.688;2024-02-23T14:19:56;99530.09;;;13.76;100.00
75298;BME280;63896;45.990;18.688;2024-02-23T14:22:59;99542.63;;;13.76;100.00
75298;BME280;63896;45.990;18.688;2024-02-23T14:26:03;99545.72;;;14.00;97.63
75298;BME280;63896;45.990;18.688;2024-02-23T14:29:08;99545.78;;;14.05;96.56
75298;BME280;63896;45.990;18.688;2024-02-23T14:32:18;99538.75;;;13.94;98.20
75298;BME280;63896;45.990;18.688;2024-02-23T14:35:21;99539.53;;;13.89;96.40
75298;BME280;63896;45.990;18.688;2024-02-23T14:38:24;99540.00;;;13.81;96.71
75298;BME280;63896;45.990;18.688;2024-02-23T14:41:27;99534.91;;;13.79;96.65
75298;BME280;63896;45.990;18.688;2024-02-23T14:44:30;99535.72;;;13.80;90.06
75298;BME280;63896;45.990;18.688;2024-02-23T14:47:33;99534.56;;;13.71;96.65
75298;BME280;63896;45.990;18.688;2024-02-23T14:50:47;99527.13;;;13.73;95.73
75298;BME280;63896;45.990;18.688;2024-02-23T14:53:50;99526.81;;;13.64;93.90
75298;BME280;63896;45.990;18.688;2024-02-23T14:56:53;99517.69;;;13.55;95.65
75298;BME280;63896;45.990;18.688;2024-02-23T14:59:56;99515.09;;;13.65;90.97
75298;BME280;63896;45.990;18.688;2024-02-23T15:02:59;99520.09;;;13.57;85.78
75298;BME280;63896;45.990;18.688;2024-02-23T15:06:02;99509.94;;;13.54;83.66
75298;BME280;63896;45.990;18.688;2024-02-23T15:09:05;99504.53;;;13.44;83.60
75298;BME280;63896;45.990;18.688;2024-02-23T15:12:08;99495.16;;;13.41;83.90
75298;BME280;63896;45.990;18.688;2024-02-23T15:15:11;99499.97;;;13.44;79.07
75298;BME280;63896;45.990;18.688;2024-02-23T15:18:14;99490.41;;;13.43;79.35
75298;BME280;63896;45.990;18.688;2024-02-23T15:21:17;99481.84;;;13.41;82.13
75298;BME280;63896;45.990;18.688;2024-02-23T15:24:21;99477.56;;;13.40;79.62
75298;BME280;63896;45.990;18.688;2024-02-23T15:27:26;99479.19;;;13.41;78.25
75298;BME280;63896;45.990;18.688;2024-02-23T15:30:29;99479.19;;;13.41;78.07
75298;BME280;63896;45.990;18.688;2024-02-23T15:33:33;99484.50;;;13.36;77.03
75298;BME280;63896;45.990;18.688;2024-02-23T15:36:37;99493.78;;;13.33;75.32
75298;BME280;63896;45.990;18.688;2024-02-23T15:39:40;99487.63;;;13.33;76.00
75298;BME280;63896;45.990;18.688;2024-02-23T15:42:42;99497.66;;;13.21;76.40
75298;BME280;63896;45.990;18.688;2024-02-23T15:45:45;99494.66;;;13.12;75.67
75298;BME280;63896;45.990;18.688;2024-02-23T15:48:48;99488.53;;;13.12;74.09
75298;BME280;63896;45.990;18.688;2024-02-23T15:51:51;99489.63;;;13.16;72.08
75298;BME280;63896;45.990;18.688;2024-02-23T15:55:02;99493.41;;;13.20;71.56
75298;BME280;63896;45.990;18.688;2024-02-23T15:58:06;99488.25;;;13.13;72.86
75298;BME280;63896;45.990;18.688;2024-02-23T16:01:10;99488.22;;;13.08;73.66